Manoa — KDBG — position and weather

sailwx.info

Track history (hours):
 
Tides and Currents Weather Stations Pressure Air Temp Water Temp Dewpoint Dewpoint Depression Visibility Wind Speed Wind Dir Waves Ship Positions

Manoa

Owner: MATSON NAVIGATION CO, RALEIGH, NC. More information available from US FCC via Universal Licensing System and Coast Guard Vessel Documentation Center.

Last reported at 2017-Feb-17 00:00 UTC. Time now 2017-Mar-01 17:54 UTC.
Position N 28°54' W 141°12'.
Warning: this ship's position is 12 days out of date.

Type: Cargo ship. MMSI: 366562000.

Wind from 240 at 34 knots

Barometer 1012.8 mb
Air temperature 21.7 ° C
Visibility: greater than 10.8 NM
Dewpoint 17.2 ° C
Water temperature 22.8 ° C

Date/timePositionNaut miles runAvg speedWind from/ knotsBaromVisibWave heightAir tempDewpointWater temp
2017-Feb-17 00:00N 28°54' W 141°12'22418.7 240 / 341012.810.8 21.717.222.8
2017-Feb-16 12:00N 28°18' W 137°00'23119.2 150 / 161015.210.8 18.315.621.1
2017-Feb-16 00:00N 29°42' W 132°54'37820.1 200 / 291014.010.8 20.017.220.0
2017-Feb-15 05:12N 33°57' W 127°27'3520.9
2017-Feb-15 03:31N 34°22' W 126°57'2820.3
2017-Feb-15 02:09N 34°42' W 126°34'3920.5
2017-Feb-15 00:16N 35°10' W 126°01'2020.5
2017-Feb-14 23:18N 35°24' W 125°44'1620.7
2017-Feb-14 22:33N 35°35' W 125°30'2120.9
2017-Feb-14 21:33N 35°50' W 125°12'2121.3
2017-Feb-14 20:33N 36°05' W 124°54'2120.8
2017-Feb-14 19:33N 36°20' W 124°36'2120.8
2017-Feb-14 18:33N 36°35' W 124°17'2120.4
2017-Feb-14 17:31N 36°50' W 123°59'2020.7
2017-Feb-14 16:33N 37°04' W 123°41'1919.2
2017-Feb-14 15:33N 37°18' W 123°24'1615.9
2017-Feb-14 14:33N 37°29' W 123°10'1717.4
2017-Feb-14 13:33N 37°40' W 122°53'1515.2
2017-Feb-14 12:33N 37°47' W 122°36'1312.6
2017-Feb-14 11:33N 37°48' W 122°20'1 1.5
2017-Feb-14 10:33N 37°48' W 122°18'0 0.0
2017-Feb-14 09:33N 37°48' W 122°18'0 0.0
2017-Feb-14 08:33N 37°48' W 122°18'0 0.0
2017-Feb-14 07:33N 37°48' W 122°18'0 0.0
2017-Feb-14 06:33N 37°48' W 122°18'0 0.0
2017-Feb-14 05:33N 37°48' W 122°18'0 0.0
2017-Feb-14 04:33N 37°48' W 122°18'0 0.0
2017-Feb-14 03:33N 37°48' W 122°18'0 0.0
2017-Feb-14 02:33N 37°48' W 122°18'0 0.0
2017-Feb-14 01:33N 37°48' W 122°18'0 0.0
2017-Feb-14 00:33N 37°48' W 122°18'0 0.0
2017-Feb-13 23:33N 37°48' W 122°18'0 0.0
2017-Feb-13 22:33N 37°48' W 122°18'0 0.0
2017-Feb-13 21:33N 37°48' W 122°18'0 0.0
2017-Feb-13 20:33N 37°48' W 122°18'0 0.0
2017-Feb-13 19:33N 37°48' W 122°18'0 0.0
2017-Feb-13 18:33N 37°48' W 122°18'0 0.0
2017-Feb-13 17:33N 37°48' W 122°18'0 0.3
2017-Feb-13 16:33N 37°48' W 122°18'4 4.3
2017-Feb-13 15:34N 37°48' W 122°23'1211.6
2017-Feb-13 14:33N 37°46' W 122°37'1211.9
2017-Feb-13 13:33N 37°49' W 122°52'1818.1
2017-Feb-13 12:33N 37°58' W 123°12'1817.8
2017-Feb-13 11:33N 38°10' W 123°28'1817.8
2017-Feb-13 10:33N 38°19' W 123°48'1616.0
2017-Feb-13 09:33N 38°27' W 124°06'2120.2
2017-Feb-13 08:32N 38°44' W 124°20'2222.0
2017-Feb-13 07:31N 39°05' W 124°29'4422.1
2017-Feb-13 05:33N 39°47' W 124°46'22522.2
2017-Feb-12 19:24N 43°31' W 125°10'1922.1
2017-Feb-12 18:33N 43°50' W 125°11'2222.1
2017-Feb-12 17:33N 44°12' W 125°12'2222.1
2017-Feb-12 16:34N 44°34' W 125°13'2221.8
2017-Feb-12 15:34N 44°56' W 125°14'2121.2
2017-Feb-12 14:33N 45°17' W 125°15'2120.9
2017-Feb-12 13:33N 45°38' W 125°16'2120.8
2017-Feb-12 12:34N 45°59' W 125°17'2120.5
2017-Feb-12 11:33N 46°19' W 125°19'2020.4
2017-Feb-12 10:34N 46°39' W 125°20'2020.3
2017-Feb-12 09:34N 46°60' W 125°21'2020.0
2017-Feb-12 08:33N 47°20' W 125°22'4419.7
2017-Feb-12 06:20N 48°04' W 125°19'1620.3
2017-Feb-12 05:33N 48°19' W 125°11'1716.7
2017-Feb-12 04:34N 48°31' W 124°54'1616.4
2017-Feb-12 03:34N 48°27' W 124°30'2221.5
2017-Feb-12 02:33N 48°19' W 124°00'2020.4
2017-Feb-12 01:34N 48°15' W 123°30'1111.3
2017-Feb-12 00:34N 48°10' W 123°15'1817.9
2017-Feb-11 23:33N 48°12' W 122°48'1817.7
2017-Feb-11 22:34N 47°57' W 122°33'1616.3
2017-Feb-11 21:34N 47°41' W 122°27'8 7.7
2017-Feb-11 20:33N 47°35' W 122°21'0 0.2
2017-Feb-11 19:33N 47°35' W 122°21'0 0.0
2017-Feb-11 18:33N 47°35' W 122°21'0 0.0
2017-Feb-11 17:33N 47°35' W 122°21'0 0.0
2017-Feb-11 16:33N 47°35' W 122°21'0 0.0
2017-Feb-11 15:32N 47°35' W 122°21'0 0.0
2017-Feb-11 14:31N 47°35' W 122°21'0 0.0
2017-Feb-11 13:32N 47°35' W 122°21'0 0.0
2017-Feb-11 12:32N 47°35' W 122°21'0 0.0
2017-Feb-11 11:33N 47°35' W 122°21'0 0.0
2017-Feb-11 10:31N 47°35' W 122°21'0 0.0
2017-Feb-11 09:31N 47°35' W 122°21'0 0.0
2017-Feb-11 08:31N 47°35' W 122°21'0 0.0
2017-Feb-11 07:31N 47°35' W 122°21'0 0.0
2017-Feb-11 06:32N 47°35' W 122°21'0 0.0
2017-Feb-11 05:31N 47°35' W 122°21'0 0.0
2017-Feb-11 04:31N 47°35' W 122°21'0 0.0
2017-Feb-11 03:31N 47°35' W 122°21'0 0.0
2017-Feb-11 02:33N 47°35' W 122°21'0 0.0
2017-Feb-11 01:33N 47°35' W 122°21'0 0.0
2017-Feb-11 00:33N 47°35' W 122°21'0 0.0
2017-Feb-10 23:33N 47°35' W 122°21'0 0.0
2017-Feb-10 22:33N 47°35' W 122°21'0 0.0
2017-Feb-10 21:33N 47°35' W 122°21'0 0.0
2017-Feb-10 20:33N 47°35' W 122°21'0 0.1
2017-Feb-10 19:33N 47°35' W 122°21'3 2.9
2017-Feb-10 18:33N 47°37' W 122°24'10 9.9
2017-Feb-10 17:33N 47°47' W 122°27'1717.1
2017-Feb-10 16:33N 48°02' W 122°39'1716.7
2017-Feb-10 15:33N 48°12' W 122°59'1616.3
2017-Feb-10 14:33N 48°10' W 123°23'1111.0
2017-Feb-10 13:34N 48°13' W 123°38'1919.4
2017-Feb-10 12:34N 48°17' W 124°07'2323.0
2017-Feb-10 11:34N 48°27' W 124°38'2020.3
2017-Feb-10 10:33N 48°20' W 125°07'  
Track history (hours):
 
Tides and Currents Weather Stations Pressure Air Temp Water Temp Dewpoint Dewpoint Depression Visibility Wind Speed Wind Dir Waves Ship Positions

Manoa

Owner: MATSON NAVIGATION CO, RALEIGH, NC. More information available from US FCC via Universal Licensing System and Coast Guard Vessel Documentation Center.

Last reported at 2017-Feb-17 00:00 UTC. Time now 2017-Mar-01 17:54 UTC.
Position N 28°54' W 141°12'.
Warning: this ship's position is 12 days out of date.

Type: Cargo ship. MMSI: 366562000.

Wind from 240 at 34 knots

Barometer 1012.8 mb
Air temperature 21.7 ° C
Visibility: greater than 10.8 NM
Dewpoint 17.2 ° C
Water temperature 22.8 ° C

Date/timePositionNaut miles runAvg speedWind from/ knotsBaromVisibWave heightAir tempDewpointWater temp
2017-Feb-17 00:00N 28°54' W 141°12'22418.7 240 / 341012.810.8 21.717.222.8
2017-Feb-16 12:00N 28°18' W 137°00'23119.2 150 / 161015.210.8 18.315.621.1
2017-Feb-16 00:00N 29°42' W 132°54'37820.1 200 / 291014.010.8 20.017.220.0
2017-Feb-15 05:12N 33°57' W 127°27'3520.9
2017-Feb-15 03:31N 34°22' W 126°57'2820.3
2017-Feb-15 02:09N 34°42' W 126°34'3920.5
2017-Feb-15 00:16N 35°10' W 126°01'2020.5
2017-Feb-14 23:18N 35°24' W 125°44'1620.7
2017-Feb-14 22:33N 35°35' W 125°30'2120.9
2017-Feb-14 21:33N 35°50' W 125°12'2121.3
2017-Feb-14 20:33N 36°05' W 124°54'2120.8
2017-Feb-14 19:33N 36°20' W 124°36'2120.8
2017-Feb-14 18:33N 36°35' W 124°17'2120.4
2017-Feb-14 17:31N 36°50' W 123°59'2020.7
2017-Feb-14 16:33N 37°04' W 123°41'1919.2
2017-Feb-14 15:33N 37°18' W 123°24'1615.9
2017-Feb-14 14:33N 37°29' W 123°10'1717.4
2017-Feb-14 13:33N 37°40' W 122°53'1515.2
2017-Feb-14 12:33N 37°47' W 122°36'1312.6
2017-Feb-14 11:33N 37°48' W 122°20'1 1.5
2017-Feb-14 10:33N 37°48' W 122°18'0 0.0
2017-Feb-14 09:33N 37°48' W 122°18'0 0.0
2017-Feb-14 08:33N 37°48' W 122°18'0 0.0
2017-Feb-14 07:33N 37°48' W 122°18'0 0.0
2017-Feb-14 06:33N 37°48' W 122°18'0 0.0
2017-Feb-14 05:33N 37°48' W 122°18'0 0.0
2017-Feb-14 04:33N 37°48' W 122°18'0 0.0
2017-Feb-14 03:33N 37°48' W 122°18'0 0.0
2017-Feb-14 02:33N 37°48' W 122°18'0 0.0
2017-Feb-14 01:33N 37°48' W 122°18'0 0.0
2017-Feb-14 00:33N 37°48' W 122°18'0 0.0
2017-Feb-13 23:33N 37°48' W 122°18'0 0.0
2017-Feb-13 22:33N 37°48' W 122°18'0 0.0
2017-Feb-13 21:33N 37°48' W 122°18'0 0.0
2017-Feb-13 20:33N 37°48' W 122°18'0 0.0
2017-Feb-13 19:33N 37°48' W 122°18'0 0.0
2017-Feb-13 18:33N 37°48' W 122°18'0 0.0
2017-Feb-13 17:33N 37°48' W 122°18'0 0.3
2017-Feb-13 16:33N 37°48' W 122°18'4 4.3
2017-Feb-13 15:34N 37°48' W 122°23'1211.6
2017-Feb-13 14:33N 37°46' W 122°37'1211.9
2017-Feb-13 13:33N 37°49' W 122°52'1818.1
2017-Feb-13 12:33N 37°58' W 123°12'1817.8
2017-Feb-13 11:33N 38°10' W 123°28'1817.8
2017-Feb-13 10:33N 38°19' W 123°48'1616.0
2017-Feb-13 09:33N 38°27' W 124°06'2120.2
2017-Feb-13 08:32N 38°44' W 124°20'2222.0
2017-Feb-13 07:31N 39°05' W 124°29'4422.1
2017-Feb-13 05:33N 39°47' W 124°46'22522.2
2017-Feb-12 19:24N 43°31' W 125°10'1922.1
2017-Feb-12 18:33N 43°50' W 125°11'2222.1
2017-Feb-12 17:33N 44°12' W 125°12'2222.1
2017-Feb-12 16:34N 44°34' W 125°13'2221.8
2017-Feb-12 15:34N 44°56' W 125°14'2121.2
2017-Feb-12 14:33N 45°17' W 125°15'2120.9
2017-Feb-12 13:33N 45°38' W 125°16'2120.8
2017-Feb-12 12:34N 45°59' W 125°17'2120.5
2017-Feb-12 11:33N 46°19' W 125°19'2020.4
2017-Feb-12 10:34N 46°39' W 125°20'2020.3
2017-Feb-12 09:34N 46°60' W 125°21'2020.0
2017-Feb-12 08:33N 47°20' W 125°22'4419.7
2017-Feb-12 06:20N 48°04' W 125°19'1620.3
2017-Feb-12 05:33N 48°19' W 125°11'1716.7
2017-Feb-12 04:34N 48°31' W 124°54'1616.4
2017-Feb-12 03:34N 48°27' W 124°30'2221.5
2017-Feb-12 02:33N 48°19' W 124°00'2020.4
2017-Feb-12 01:34N 48°15' W 123°30'1111.3
2017-Feb-12 00:34N 48°10' W 123°15'1817.9
2017-Feb-11 23:33N 48°12' W 122°48'1817.7
2017-Feb-11 22:34N 47°57' W 122°33'1616.3
2017-Feb-11 21:34N 47°41' W 122°27'8 7.7
2017-Feb-11 20:33N 47°35' W 122°21'0 0.2
2017-Feb-11 19:33N 47°35' W 122°21'0 0.0
2017-Feb-11 18:33N 47°35' W 122°21'0 0.0
2017-Feb-11 17:33N 47°35' W 122°21'0 0.0
2017-Feb-11 16:33N 47°35' W 122°21'0 0.0
2017-Feb-11 15:32N 47°35' W 122°21'0 0.0
2017-Feb-11 14:31N 47°35' W 122°21'0 0.0
2017-Feb-11 13:32N 47°35' W 122°21'0 0.0
2017-Feb-11 12:32N 47°35' W 122°21'0 0.0
2017-Feb-11 11:33N 47°35' W 122°21'0 0.0
2017-Feb-11 10:31N 47°35' W 122°21'0 0.0
2017-Feb-11 09:31N 47°35' W 122°21'0 0.0
2017-Feb-11 08:31N 47°35' W 122°21'0 0.0
2017-Feb-11 07:31N 47°35' W 122°21'0 0.0
2017-Feb-11 06:32N 47°35' W 122°21'0 0.0
2017-Feb-11 05:31N 47°35' W 122°21'0 0.0
2017-Feb-11 04:31N 47°35' W 122°21'0 0.0
2017-Feb-11 03:31N 47°35' W 122°21'0 0.0
2017-Feb-11 02:33N 47°35' W 122°21'0 0.0
2017-Feb-11 01:33N 47°35' W 122°21'0 0.0
2017-Feb-11 00:33N 47°35' W 122°21'0 0.0
2017-Feb-10 23:33N 47°35' W 122°21'0 0.0
2017-Feb-10 22:33N 47°35' W 122°21'0 0.0
2017-Feb-10 21:33N 47°35' W 122°21'0 0.0
2017-Feb-10 20:33N 47°35' W 122°21'0 0.1
2017-Feb-10 19:33N 47°35' W 122°21'3 2.9
2017-Feb-10 18:33N 47°37' W 122°24'10 9.9
2017-Feb-10 17:33N 47°47' W 122°27'1717.1
2017-Feb-10 16:33N 48°02' W 122°39'1716.7
2017-Feb-10 15:33N 48°12' W 122°59'1616.3
2017-Feb-10 14:33N 48°10' W 123°23'1111.0
2017-Feb-10 13:34N 48°13' W 123°38'1919.4
2017-Feb-10 12:34N 48°17' W 124°07'2323.0
2017-Feb-10 11:34N 48°27' W 124°38'2020.3
2017-Feb-10 10:33N 48°20' W 125°07'  

Dump ship's entire track history